Albaida, Spain
Current Conditions -  °F | °C
As of 6:00 PM on Thursday 23 Oct 2014 (Local Time) from LEAL Reporting Station
Clear Clear  
Wind Chill: 75°   Ceiling: Unl
Heat Index: 75°   Visibility: 6mi
Dew Point: 63°   Wind: 9mph
Humidity: 65%   Direction: 180°S
Pressure: 30.03"   Gusts: NA
Location:  38.84°N, 0.52°W
Report Text: LEAL 231600Z 18008KT 130V210 CAVOK 24/17 Q1017 NOSIG
Loading
Personal Weather Stations






























Interactive Weather Map New forecast layout! Learn more

10-Day Weather Forecast

Advertisements
Track Severe Weather on mobile